createdAt,value
2023-04-22T00:01:32.054Z,33.00
2023-04-22T00:03:59.364Z,33.00
2023-04-22T00:06:26.598Z,32.50
2023-04-22T00:08:53.649Z,33.00
2023-04-22T00:11:20.688Z,32.40
2023-04-22T00:13:48.150Z,32.40
2023-04-22T00:16:15.063Z,32.50
2023-04-22T00:18:42.243Z,33.10
2023-04-22T00:21:09.221Z,33.10
2023-04-22T00:23:36.186Z,33.10
2023-04-22T00:26:03.731Z,32.50
2023-04-22T00:28:30.731Z,32.50
2023-04-22T00:30:58.874Z,33.10
2023-04-22T00:33:26.095Z,32.70
2023-04-22T00:35:54.758Z,32.50
2023-04-22T00:38:22.060Z,32.50
2023-04-22T00:40:49.059Z,33.20
2023-04-22T00:43:17.890Z,33.20
2023-04-22T00:45:45.188Z,33.20
2023-04-22T00:48:13.937Z,33.30
2023-04-22T00:50:41.265Z,32.70
2023-04-22T00:53:08.459Z,32.60
2023-04-22T00:55:35.757Z,32.70
2023-04-22T00:58:04.328Z,33.30
2023-04-22T01:00:31.450Z,33.20
2023-04-22T01:02:58.815Z,32.70
2023-04-22T01:05:26.270Z,32.70
2023-04-22T01:07:53.301Z,32.70
2023-04-22T01:10:20.720Z,32.80
2023-04-22T01:15:15.005Z,32.80
2023-04-22T01:17:41.932Z,32.70
2023-04-22T01:22:44.327Z,32.80
2023-04-22T01:25:13.937Z,32.80
2023-04-22T01:27:41.975Z,32.80
2023-04-22T01:30:10.228Z,32.80
2023-04-22T01:32:39.176Z,32.80
2023-04-22T01:35:07.287Z,32.80
2023-04-22T01:37:35.446Z,32.80
2023-04-22T01:40:04.928Z,32.80
2023-04-22T01:42:32.516Z,32.80
2023-04-22T01:49:54.874Z,32.90
2023-04-22T01:52:21.981Z,32.90
2023-04-22T01:54:49.349Z,32.90
2023-04-22T01:57:16.480Z,32.90
2023-04-22T01:59:43.405Z,33.00
2023-04-22T02:02:10.743Z,32.90
2023-04-22T02:07:05.083Z,32.90
2023-04-22T02:09:34.266Z,32.90
2023-04-22T02:12:01.571Z,32.90
2023-04-22T02:14:29.043Z,32.90
2023-04-22T02:19:24.135Z,32.90
2023-04-22T02:21:51.260Z,32.90
2023-04-22T02:24:18.155Z,32.90
2023-04-22T02:26:46.248Z,33.00
2023-04-22T02:31:40.754Z,33.00
2023-04-22T02:34:07.932Z,33.00
2023-04-22T02:39:06.137Z,33.00
2023-04-22T02:41:33.085Z,33.00
2023-04-22T02:46:27.557Z,33.10
2023-04-22T02:48:54.803Z,33.00
2023-04-22T02:51:22.104Z,33.10
2023-04-22T02:53:49.166Z,33.00
2023-04-22T02:56:16.212Z,33.00
2023-04-22T03:01:11.813Z,33.10
2023-04-22T03:03:39.428Z,33.10
2023-04-22T03:06:06.770Z,33.10
2023-04-22T03:08:36.660Z,33.10
2023-04-22T03:13:31.971Z,33.10
2023-04-22T03:15:58.902Z,33.10
2023-04-22T03:18:25.984Z,33.10
2023-04-22T03:20:52.894Z,33.20
2023-04-22T03:23:19.890Z,33.10
2023-04-22T03:25:46.978Z,33.20
2023-04-22T03:28:13.953Z,33.20
2023-04-22T03:30:41.028Z,33.20
2023-04-22T03:33:08.403Z,33.20
2023-04-22T03:35:35.613Z,33.20
2023-04-22T03:38:02.730Z,33.20
2023-04-22T03:40:29.720Z,33.20
2023-04-22T03:42:56.820Z,33.20
2023-04-22T03:45:23.883Z,33.10
2023-04-22T03:47:50.837Z,33.10
2023-04-22T03:50:21.009Z,33.20
2023-04-22T03:55:15.652Z,33.20
2023-04-22T03:57:42.665Z,33.20
2023-04-22T04:00:10.309Z,33.70
2023-04-22T04:05:05.626Z,33.20
2023-04-22T04:07:32.670Z,33.20
2023-04-22T04:14:54.795Z,33.20
2023-04-22T04:17:25.882Z,33.80
2023-04-22T04:19:53.447Z,33.30
2023-04-22T04:24:48.765Z,33.20
2023-04-22T04:27:15.995Z,33.30
2023-04-22T04:29:43.097Z,33.20
2023-04-22T04:32:16.109Z,33.30
2023-04-22T04:34:43.066Z,33.20
2023-04-22T04:37:10.224Z,33.80
2023-04-22T04:42:05.340Z,33.30
2023-04-22T04:44:32.559Z,33.30
2023-04-22T04:46:59.707Z,33.30
2023-04-22T04:51:54.377Z,33.40
2023-04-22T04:56:49.120Z,33.30
2023-04-22T05:01:43.432Z,33.40
2023-04-22T05:04:10.588Z,33.40
2023-04-22T05:06:37.699Z,33.40
2023-04-22T05:09:04.967Z,33.40
2023-04-22T05:11:32.071Z,33.90
2023-04-22T05:16:27.126Z,33.40
2023-04-22T05:18:54.272Z,33.50
2023-04-22T05:21:21.188Z,33.40
2023-04-22T05:23:48.850Z,33.40
2023-04-22T05:26:16.042Z,33.40
2023-04-22T05:28:43.155Z,33.40
2023-04-22T05:31:10.082Z,33.90
2023-04-22T05:36:05.133Z,33.50
2023-04-22T05:38:32.652Z,33.50
2023-04-22T05:40:59.919Z,33.40
2023-04-22T05:48:21.467Z,33.40
2023-04-22T05:50:48.580Z,33.40
2023-04-22T05:53:15.839Z,33.50
2023-04-22T06:00:37.889Z,33.50
2023-04-22T06:03:04.907Z,33.50
2023-04-22T06:05:33.183Z,33.50
2023-04-22T06:08:00.930Z,33.40
2023-04-22T06:12:56.132Z,33.50
2023-04-22T06:15:23.623Z,33.50
2023-04-22T06:17:50.845Z,33.50
2023-04-22T06:20:18.172Z,33.50
2023-04-22T06:22:45.478Z,33.50
2023-04-22T06:25:13.064Z,33.50
2023-04-22T06:27:43.397Z,33.60
2023-04-22T06:30:16.278Z,33.40
2023-04-22T06:35:10.820Z,33.50
2023-04-22T06:40:06.476Z,33.50
2023-04-22T06:42:33.419Z,33.50
2023-04-22T06:45:00.388Z,33.50
2023-04-22T06:49:54.690Z,33.50
2023-04-22T06:52:24.004Z,33.50
2023-04-22T06:54:51.200Z,33.50
2023-04-22T06:57:18.173Z,33.60
2023-04-22T07:02:14.847Z,33.70
2023-04-22T07:04:42.035Z,33.70
2023-04-22T07:07:09.245Z,33.90
2023-04-22T07:09:37.398Z,33.90
2023-04-22T07:12:07.842Z,33.90
2023-04-22T07:14:34.934Z,33.90
2023-04-22T07:17:02.642Z,33.80
2023-04-22T07:19:30.479Z,34.00
2023-04-22T07:21:58.104Z,34.00
2023-04-22T07:24:25.190Z,34.70
2023-04-22T07:26:52.374Z,33.80
2023-04-22T07:29:19.450Z,34.20
2023-04-22T07:31:46.684Z,34.70
2023-04-22T07:34:14.523Z,34.20
2023-04-22T07:36:42.460Z,34.30
2023-04-22T07:39:10.156Z,34.30
2023-04-22T07:41:37.978Z,34.30
2023-04-22T07:46:34.812Z,34.30
2023-04-22T07:49:01.787Z,34.20
2023-04-22T07:51:29.280Z,34.30
2023-04-22T07:53:56.476Z,34.20
2023-04-22T07:56:23.722Z,34.40
2023-04-22T07:58:50.854Z,34.40
2023-04-22T08:01:19.996Z,34.40
2023-04-22T08:03:47.914Z,34.30
2023-04-22T08:06:19.050Z,34.40
2023-04-22T08:11:13.493Z,34.50
2023-04-22T08:16:08.745Z,34.40
2023-04-22T08:18:36.370Z,34.90
2023-04-22T08:21:03.969Z,34.40
2023-04-22T08:28:26.947Z,34.30
2023-04-22T08:30:54.100Z,34.90
2023-04-22T08:33:21.355Z,34.30
2023-04-22T08:35:48.556Z,34.20
2023-04-22T08:40:43.461Z,34.20
2023-04-22T08:43:11.755Z,34.20
2023-04-22T08:45:40.756Z,34.20
2023-04-22T08:48:11.487Z,34.20
2023-04-22T08:50:40.089Z,34.20
2023-04-22T08:55:36.555Z,34.10
2023-04-22T08:58:07.844Z,34.10
2023-04-22T09:00:37.150Z,34.10
2023-04-22T09:03:11.398Z,34.00
2023-04-22T09:05:42.058Z,34.00
2023-04-22T09:08:12.051Z,34.00
2023-04-22T09:10:39.715Z,33.90
2023-04-22T09:13:13.468Z,33.90
2023-04-22T09:18:10.248Z,34.00
2023-04-22T09:20:42.129Z,34.50
2023-04-22T09:23:09.986Z,33.90
2023-04-22T09:25:39.054Z,33.90
2023-04-22T09:28:06.432Z,33.90
2023-04-22T09:30:39.028Z,33.80
2023-04-22T09:33:08.343Z,33.90
2023-04-22T09:35:42.296Z,34.50
2023-04-22T09:38:12.352Z,33.90
2023-04-22T09:40:44.231Z,33.90
2023-04-22T09:43:11.913Z,33.90
2023-04-22T09:45:42.748Z,33.90
2023-04-22T09:48:17.256Z,34.50
2023-04-22T09:50:51.223Z,34.50
2023-04-22T09:53:24.610Z,34.00
2023-04-22T09:55:54.812Z,34.10
2023-04-22T09:58:28.112Z,34.70
2023-04-22T10:00:58.022Z,34.10
2023-04-22T10:05:58.192Z,34.00
2023-04-22T10:08:25.339Z,33.90
2023-04-22T10:10:53.745Z,34.40
2023-04-22T10:13:22.796Z,33.80
2023-04-22T10:15:53.551Z,33.80
2023-04-22T10:18:26.090Z,33.70
2023-04-22T10:20:56.862Z,33.70
2023-04-22T10:23:25.364Z,33.70
2023-04-22T10:25:57.041Z,33.60
2023-04-22T10:28:28.748Z,33.80
2023-04-22T10:30:56.222Z,33.80
2023-04-22T10:33:29.156Z,33.90
2023-04-22T10:36:17.764Z,33.80
2023-04-22T10:38:50.686Z,33.90
2023-04-22T10:41:23.663Z,33.80
2023-04-22T10:43:59.043Z,34.30
2023-04-22T10:46:37.124Z,34.10
2023-04-22T10:49:11.880Z,33.60
2023-04-22T10:52:00.557Z,33.50
2023-04-22T10:54:37.104Z,33.50
2023-04-22T10:57:19.253Z,34.00
2023-04-22T10:59:56.369Z,33.30
2023-04-22T11:02:25.125Z,33.30
2023-04-22T11:05:26.021Z,33.40
2023-04-22T11:08:01.415Z,33.30
2023-04-22T11:10:43.962Z,33.30
2023-04-22T11:13:19.394Z,33.30
2023-04-22T11:15:54.238Z,33.20
2023-04-22T11:18:30.262Z,33.20
2023-04-22T11:21:03.152Z,33.50
2023-04-22T11:23:30.572Z,33.20
2023-04-22T11:26:05.373Z,33.10
2023-04-22T11:28:33.237Z,33.40
2023-04-22T11:31:12.402Z,32.90
2023-04-22T11:33:39.774Z,32.70
2023-04-22T11:36:12.479Z,32.40
2023-04-22T11:38:40.246Z,32.30
2023-04-22T11:41:07.300Z,32.30
2023-04-22T11:43:34.511Z,32.30
2023-04-22T11:48:32.184Z,32.10
2023-04-22T11:51:11.768Z,31.90
2023-04-22T11:53:41.665Z,32.00
2023-04-22T11:56:08.970Z,31.80
2023-04-22T11:58:41.337Z,31.80
2023-04-22T12:01:14.149Z,31.80
2023-04-22T12:03:41.493Z,31.80
2023-04-22T12:06:11.323Z,32.30
2023-04-22T12:08:42.684Z,31.80
2023-04-22T12:11:12.359Z,31.80
2023-04-22T12:13:41.320Z,31.70
2023-04-22T12:16:19.245Z,32.00
2023-04-22T12:18:56.165Z,31.60
2023-04-22T12:21:28.571Z,31.50
2023-04-22T12:23:59.759Z,31.60
2023-04-22T12:26:28.322Z,31.80
2023-04-22T12:29:00.846Z,31.50
2023-04-22T12:31:28.488Z,31.90
2023-04-22T12:33:56.069Z,31.40
2023-04-22T12:36:25.013Z,31.40
2023-04-22T12:38:52.207Z,31.60
2023-04-22T12:41:19.472Z,31.30
2023-04-22T12:43:46.541Z,31.30
2023-04-22T12:46:17.035Z,32.00
2023-04-22T12:48:44.149Z,32.10
2023-04-22T12:51:11.311Z,31.90
2023-04-22T12:53:38.470Z,31.30
2023-04-22T12:56:08.055Z,31.40
2023-04-22T13:01:02.615Z,31.50
2023-04-22T13:03:29.889Z,31.70
2023-04-22T13:06:02.320Z,31.40
2023-04-22T13:08:30.185Z,31.40
2023-04-22T13:15:57.722Z,31.10
2023-04-22T13:18:24.863Z,31.70
2023-04-22T13:20:51.950Z,31.30
2023-04-22T13:23:21.828Z,31.70
2023-04-22T13:25:55.960Z,31.60
2023-04-22T13:28:23.142Z,31.40
2023-04-22T13:30:50.188Z,30.70
2023-04-22T13:33:17.332Z,31.20
2023-04-22T13:35:44.762Z,30.60
2023-04-22T13:38:11.673Z,30.60
2023-04-22T13:40:38.806Z,30.50
2023-04-22T13:43:06.286Z,31.00
2023-04-22T13:45:36.279Z,30.60
2023-04-22T13:48:04.913Z,31.10
2023-04-22T13:50:31.931Z,31.10
2023-04-22T13:52:59.113Z,30.60
2023-04-22T13:55:26.730Z,31.10
2023-04-22T13:57:55.118Z,31.20
2023-04-22T14:00:22.507Z,30.70
2023-04-22T14:05:18.861Z,30.70
2023-04-22T14:07:46.127Z,30.70
2023-04-22T14:10:13.842Z,30.70
2023-04-22T14:12:41.597Z,30.80
2023-04-22T14:15:11.250Z,30.80
2023-04-22T14:17:42.693Z,30.80
2023-04-22T14:20:13.000Z,31.40
2023-04-22T14:22:40.150Z,31.50
2023-04-22T14:25:08.542Z,30.90
2023-04-22T14:27:35.654Z,31.00
2023-04-22T14:30:06.365Z,30.90
2023-04-22T14:32:33.710Z,31.00
2023-04-22T14:35:00.959Z,30.90
2023-04-22T14:37:28.153Z,31.00
2023-04-22T14:39:55.406Z,30.90
2023-04-22T14:42:24.574Z,31.10
2023-04-22T14:44:51.561Z,31.00
2023-04-22T14:47:18.645Z,31.60
2023-04-22T14:49:45.904Z,31.00
2023-04-22T14:54:40.614Z,31.10
2023-04-22T14:57:07.903Z,31.70
2023-04-22T14:59:35.436Z,31.20
2023-04-22T15:02:02.677Z,31.20
2023-04-22T15:04:30.515Z,31.20
2023-04-22T15:06:57.969Z,31.20
2023-04-22T15:09:27.169Z,31.30
2023-04-22T15:11:56.686Z,31.30
2023-04-22T15:14:26.345Z,31.30
2023-04-22T15:16:53.352Z,31.30
2023-04-22T15:19:20.420Z,31.90
2023-04-22T15:24:15.688Z,31.40
2023-04-22T15:26:42.999Z,31.40
2023-04-22T15:29:13.166Z,32.00
2023-04-22T15:31:44.261Z,31.50
2023-04-22T15:36:40.081Z,31.60
2023-04-22T15:39:10.931Z,31.70
2023-04-22T15:41:38.426Z,31.60
2023-04-22T15:44:08.739Z,31.80
2023-04-22T15:46:37.383Z,31.80
2023-04-22T15:49:05.475Z,31.70
2023-04-22T15:51:32.732Z,31.70
2023-04-22T15:54:00.041Z,32.60
2023-04-22T15:56:29.555Z,32.40
2023-04-22T15:58:56.907Z,32.60
2023-04-22T16:01:23.879Z,32.40
2023-04-22T16:06:19.776Z,32.30
2023-04-22T16:11:16.066Z,32.40
2023-04-22T16:13:44.101Z,32.30
2023-04-22T16:16:11.293Z,32.40
2023-04-22T16:18:38.691Z,32.40
2023-04-22T16:21:07.963Z,32.40
2023-04-22T16:26:08.282Z,32.60
2023-04-22T16:28:35.340Z,32.50
2023-04-22T16:31:02.859Z,32.60
2023-04-22T16:33:30.000Z,32.60
2023-04-22T16:35:57.566Z,33.20
2023-04-22T16:38:24.551Z,32.70
2023-04-22T16:40:54.071Z,32.70
2023-04-22T16:45:48.986Z,32.80
2023-04-22T16:48:16.126Z,32.80
2023-04-22T16:53:12.025Z,32.80
2023-04-22T16:55:39.131Z,32.80
2023-04-22T17:00:33.511Z,32.80
2023-04-22T17:03:01.221Z,33.40
2023-04-22T17:05:28.431Z,32.80
2023-04-22T17:07:55.477Z,32.80
2023-04-22T17:12:50.333Z,32.90
2023-04-22T17:17:45.290Z,32.80
2023-04-22T17:22:40.360Z,32.90
2023-04-22T17:25:08.273Z,32.90
2023-04-22T17:30:03.417Z,32.90
2023-04-22T17:32:30.532Z,32.90
2023-04-22T17:34:57.722Z,33.00
2023-04-22T17:37:24.920Z,33.50
2023-04-22T17:39:52.084Z,32.90
2023-04-22T17:42:20.248Z,33.00
2023-04-22T17:44:47.448Z,33.10
2023-04-22T17:47:17.701Z,33.00
2023-04-22T17:49:44.803Z,33.70
2023-04-22T17:52:12.065Z,33.10
2023-04-22T17:54:39.689Z,33.60
2023-04-22T17:57:07.509Z,33.10
2023-04-22T17:59:34.758Z,33.20
2023-04-22T18:02:02.126Z,33.20
2023-04-22T18:04:29.108Z,33.20
2023-04-22T18:06:56.237Z,33.20
2023-04-22T18:11:58.230Z,33.30
2023-04-22T18:14:28.598Z,33.30
2023-04-22T18:16:55.743Z,33.20
2023-04-22T18:19:25.422Z,33.30
2023-04-22T18:21:59.615Z,33.30
2023-04-22T18:24:28.229Z,33.30
2023-04-22T18:26:55.145Z,33.30
2023-04-22T18:29:22.192Z,33.30
2023-04-22T18:31:49.203Z,33.90
2023-04-22T18:34:19.038Z,33.50
2023-04-22T18:36:46.452Z,33.40
2023-04-22T18:44:09.760Z,33.50
2023-04-22T18:46:37.059Z,33.40
2023-04-22T18:54:00.755Z,33.50
2023-04-22T18:56:29.659Z,33.60
2023-04-22T18:58:56.761Z,33.60
2023-04-22T19:01:26.511Z,33.60
2023-04-22T19:08:49.016Z,33.70
2023-04-22T19:11:17.117Z,33.60
2023-04-22T19:13:44.464Z,33.60
2023-04-22T19:18:39.476Z,33.70
2023-04-22T19:23:36.312Z,33.80
2023-04-22T19:26:04.366Z,33.80
2023-04-22T19:28:31.532Z,34.40
2023-04-22T19:35:55.517Z,33.90
2023-04-22T19:38:24.088Z,33.90
2023-04-22T19:40:51.377Z,33.80
2023-04-22T19:45:46.371Z,33.90
2023-04-22T19:48:13.999Z,34.00
2023-04-22T19:50:44.625Z,33.90
2023-04-22T19:53:12.193Z,34.10
2023-04-22T19:55:39.646Z,34.00
2023-04-22T20:00:35.434Z,34.00
2023-04-22T20:07:59.242Z,34.10
2023-04-22T20:12:55.431Z,34.00
2023-04-22T20:15:23.311Z,34.10
2023-04-22T20:17:51.666Z,34.10
2023-04-22T20:20:19.240Z,34.10
2023-04-22T20:25:19.540Z,34.20
2023-04-22T20:30:14.704Z,34.20
2023-04-22T20:32:42.409Z,34.70
2023-04-22T20:35:16.675Z,34.20
2023-04-22T20:37:46.592Z,34.20
2023-04-22T20:40:15.148Z,34.20
2023-04-22T20:45:15.077Z,34.30
2023-04-22T20:47:44.978Z,34.30
2023-04-22T20:50:16.029Z,34.20
2023-04-22T20:52:43.374Z,34.30
2023-04-22T20:55:10.448Z,34.70
2023-04-22T20:57:37.668Z,34.30
2023-04-22T21:00:07.424Z,34.30
2023-04-22T21:02:36.216Z,34.40
2023-04-22T21:07:34.854Z,34.30
2023-04-22T21:10:02.282Z,34.50
2023-04-22T21:12:29.941Z,34.30
2023-04-22T21:14:57.606Z,34.40
2023-04-22T21:17:33.984Z,34.40
2023-04-22T21:20:05.566Z,34.40
2023-04-22T21:25:01.100Z,34.00
2023-04-22T21:27:31.364Z,34.30
2023-04-22T21:29:59.120Z,34.30
2023-04-22T21:32:26.815Z,34.30
2023-04-22T21:34:53.761Z,34.40
2023-04-22T21:37:20.865Z,34.40
2023-04-22T21:39:47.917Z,34.40
2023-04-22T21:42:14.857Z,34.40
2023-04-22T21:44:44.719Z,34.50
2023-04-22T21:47:11.629Z,34.50
2023-04-22T21:49:38.989Z,34.50
2023-04-22T21:52:05.968Z,34.50
2023-04-22T21:54:33.251Z,34.50
2023-04-22T21:57:01.201Z,34.50
2023-04-22T21:59:28.140Z,34.50
2023-04-22T22:01:55.247Z,35.20
2023-04-22T22:04:22.383Z,34.50
2023-04-22T22:06:49.475Z,34.50
2023-04-22T22:09:16.658Z,34.50
2023-04-22T22:11:43.576Z,34.50
2023-04-22T22:16:39.409Z,34.50
2023-04-22T22:19:06.560Z,34.60
2023-04-22T22:21:33.787Z,34.50
2023-04-22T22:24:00.881Z,34.60
2023-04-22T22:26:29.142Z,34.50
2023-04-22T22:28:59.080Z,35.10
2023-04-22T22:31:26.115Z,34.60
2023-04-22T22:33:53.117Z,34.60
2023-04-22T22:36:20.118Z,34.60
2023-04-22T22:38:47.164Z,34.60
2023-04-22T22:41:14.236Z,34.70
2023-04-22T22:48:36.834Z,34.60
2023-04-22T22:51:04.135Z,34.70
2023-04-22T22:53:33.162Z,34.60
2023-04-22T22:56:00.201Z,34.80
2023-04-22T22:58:27.361Z,34.70
2023-04-22T23:00:54.408Z,34.80
2023-04-22T23:03:21.658Z,34.70
2023-04-22T23:08:16.206Z,34.70
2023-04-22T23:10:43.292Z,34.70
2023-04-22T23:13:10.391Z,34.70
2023-04-22T23:15:37.568Z,34.70
2023-04-22T23:18:04.611Z,34.80
2023-04-22T23:20:32.714Z,34.80
2023-04-22T23:23:02.405Z,34.80
2023-04-22T23:25:30.281Z,34.70
2023-04-22T23:27:57.693Z,34.80
2023-04-22T23:30:25.230Z,34.70
2023-04-22T23:32:56.862Z,34.80
2023-04-22T23:35:27.473Z,34.80
2023-04-22T23:40:23.720Z,34.90
2023-04-22T23:42:53.312Z,34.80
2023-04-22T23:47:47.742Z,34.80
2023-04-22T23:52:43.294Z,34.90
2023-04-22T23:55:15.939Z,34.90
2023-04-22T23:57:43.420Z,34.80
